sensor_id;sensor_type;location;lat;lon;timestamp;P1;durP1;ratioP1;P2;durP2;ratioP2
5351;SDS011;2698;51.454;6.736;2023-02-11T10:05:56;82.80;;;35.13;;
5351;SDS011;2698;51.454;6.736;2023-02-11T10:08:36;81.57;;;34.10;;
5351;SDS011;2698;51.454;6.736;2023-02-11T10:11:11;61.13;;;32.57;;
5351;SDS011;2698;51.454;6.736;2023-02-11T10:13:48;79.47;;;35.13;;
5351;SDS011;2698;51.454;6.736;2023-02-11T10:16:27;70.00;;;33.10;;
5351;SDS011;2698;51.454;6.736;2023-02-11T10:19:15;65.33;;;33.50;;
5351;SDS011;2698;51.454;6.736;2023-02-11T10:21:55;65.37;;;34.30;;
5351;SDS011;2698;51.454;6.736;2023-02-11T10:24:27;78.00;;;34.47;;
5351;SDS011;2698;51.454;6.736;2023-02-11T10:26:54;81.80;;;35.20;;
5351;SDS011;2698;51.454;6.736;2023-02-11T10:29:25;70.27;;;32.83;;
5351;SDS011;2698;51.454;6.736;2023-02-11T10:32:00;64.70;;;33.13;;
5351;SDS011;2698;51.454;6.736;2023-02-11T10:34:33;73.80;;;35.63;;
5351;SDS011;2698;51.454;6.736;2023-02-11T10:37:07;70.90;;;37.07;;
5351;SDS011;2698;51.454;6.736;2023-02-11T10:39:35;74.37;;;32.93;;
5351;SDS011;2698;51.454;6.736;2023-02-11T10:42:04;63.80;;;35.03;;
5351;SDS011;2698;51.454;6.736;2023-02-11T10:44:35;58.97;;;33.40;;
5351;SDS011;2698;51.454;6.736;2023-02-11T10:47:04;73.27;;;35.23;;
5351;SDS011;2698;51.454;6.736;2023-02-11T10:49:39;70.70;;;35.73;;
5351;SDS011;2698;51.454;6.736;2023-02-11T10:52:12;80.33;;;34.17;;
5351;SDS011;2698;51.454;6.736;2023-02-11T10:54:53;61.90;;;34.10;;
5351;SDS011;2698;51.454;6.736;2023-02-11T10:57:22;70.13;;;36.03;;
5351;SDS011;2698;51.454;6.736;2023-02-11T10:59:56;82.80;;;36.03;;
5351;SDS011;2698;51.454;6.736;2023-02-11T11:02:27;64.93;;;34.37;;
5351;SDS011;2698;51.454;6.736;2023-02-11T11:04:59;79.97;;;34.90;;
5351;SDS011;2698;51.454;6.736;2023-02-11T11:07:28;67.27;;;32.17;;
5351;SDS011;2698;51.454;6.736;2023-02-11T11:09:57;70.03;;;35.60;;
5351;SDS011;2698;51.454;6.736;2023-02-11T11:12:29;63.70;;;33.53;;
5351;SDS011;2698;51.454;6.736;2023-02-11T11:15:00;86.13;;;37.30;;
5351;SDS011;2698;51.454;6.736;2023-02-11T11:17:29;79.67;;;35.90;;
5351;SDS011;2698;51.454;6.736;2023-02-11T11:20:18;86.20;;;38.03;;
5351;SDS011;2698;51.454;6.736;2023-02-11T11:22:47;72.80;;;35.37;;
5351;SDS011;2698;51.454;6.736;2023-02-11T11:25:19;64.10;;;36.53;;
5351;SDS011;2698;51.454;6.736;2023-02-11T11:27:48;66.60;;;35.50;;
5351;SDS011;2698;51.454;6.736;2023-02-11T11:30:15;68.63;;;35.77;;
5351;SDS011;2698;51.454;6.736;2023-02-11T11:32:42;67.23;;;34.33;;
5351;SDS011;2698;51.454;6.736;2023-02-11T11:35:21;76.63;;;33.47;;
5351;SDS011;2698;51.454;6.736;2023-02-11T11:37:53;67.47;;;36.30;;
5351;SDS011;2698;51.454;6.736;2023-02-11T11:40:22;84.63;;;38.03;;
5351;SDS011;2698;51.454;6.736;2023-02-11T11:43:04;68.90;;;37.10;;
5351;SDS011;2698;51.454;6.736;2023-02-11T11:45:50;75.10;;;37.10;;
5351;SDS011;2698;51.454;6.736;2023-02-11T11:48:20;72.00;;;36.70;;
5351;SDS011;2698;51.454;6.736;2023-02-11T11:50:52;72.60;;;36.20;;
5351;SDS011;2698;51.454;6.736;2023-02-11T11:53:22;73.37;;;36.90;;
5351;SDS011;2698;51.454;6.736;2023-02-11T11:55:56;82.17;;;38.23;;
5351;SDS011;2698;51.454;6.736;2023-02-11T11:58:28;66.23;;;35.43;;
5351;SDS011;2698;51.454;6.736;2023-02-11T12:00:58;81.07;;;37.60;;
5351;SDS011;2698;51.454;6.736;2023-02-11T12:03:42;82.60;;;37.70;;
5351;SDS011;2698;51.454;6.736;2023-02-11T12:06:48;77.53;;;35.70;;
5351;SDS011;2698;51.454;6.736;2023-02-11T12:09:26;76.80;;;36.27;;
5351;SDS011;2698;51.454;6.736;2023-02-11T12:12:13;68.83;;;37.10;;
5351;SDS011;2698;51.454;6.736;2023-02-11T12:14:53;80.30;;;38.70;;
5351;SDS011;2698;51.454;6.736;2023-02-11T12:17:29;74.47;;;35.47;;
5351;SDS011;2698;51.454;6.736;2023-02-11T12:20:09;68.03;;;34.83;;
5351;SDS011;2698;51.454;6.736;2023-02-11T12:22:52;85.23;;;39.27;;
5351;SDS011;2698;51.454;6.736;2023-02-11T12:25:40;80.70;;;38.10;;
5351;SDS011;2698;51.454;6.736;2023-02-11T12:28:15;74.50;;;36.27;;
5351;SDS011;2698;51.454;6.736;2023-02-11T12:30:53;75.20;;;37.87;;
5351;SDS011;2698;51.454;6.736;2023-02-11T12:33:43;82.63;;;38.23;;
5351;SDS011;2698;51.454;6.736;2023-02-11T12:36:32;77.23;;;40.67;;
5351;SDS011;2698;51.454;6.736;2023-02-11T12:39:14;74.17;;;37.70;;
5351;SDS011;2698;51.454;6.736;2023-02-11T12:41:56;80.63;;;37.63;;
5351;SDS011;2698;51.454;6.736;2023-02-11T12:44:56;79.40;;;37.57;;
5351;SDS011;2698;51.454;6.736;2023-02-11T12:47:35;81.27;;;40.00;;
5351;SDS011;2698;51.454;6.736;2023-02-11T12:50:17;79.20;;;38.60;;
5351;SDS011;2698;51.454;6.736;2023-02-11T12:52:57;92.40;;;40.90;;
5351;SDS011;2698;51.454;6.736;2023-02-11T12:55:38;70.47;;;37.87;;
5351;SDS011;2698;51.454;6.736;2023-02-11T12:58:11;83.20;;;40.13;;
5351;SDS011;2698;51.454;6.736;2023-02-11T13:00:43;78.20;;;37.57;;
5351;SDS011;2698;51.454;6.736;2023-02-11T13:03:17;68.40;;;37.30;;
5351;SDS011;2698;51.454;6.736;2023-02-11T13:05:48;80.17;;;38.50;;
5351;SDS011;2698;51.454;6.736;2023-02-11T13:08:18;85.70;;;37.93;;
5351;SDS011;2698;51.454;6.736;2023-02-11T13:10:53;77.60;;;37.43;;
5351;SDS011;2698;51.454;6.736;2023-02-11T13:13:21;73.63;;;38.90;;
5351;SDS011;2698;51.454;6.736;2023-02-11T13:15:52;67.30;;;36.53;;
5351;SDS011;2698;51.454;6.736;2023-02-11T13:18:27;77.87;;;38.03;;
5351;SDS011;2698;51.454;6.736;2023-02-11T13:21:06;70.33;;;37.47;;
5351;SDS011;2698;51.454;6.736;2023-02-11T13:23:53;78.53;;;40.00;;
5351;SDS011;2698;51.454;6.736;2023-02-11T13:26:28;69.60;;;39.40;;
5351;SDS011;2698;51.454;6.736;2023-02-11T13:29:01;68.97;;;36.23;;
5351;SDS011;2698;51.454;6.736;2023-02-11T13:31:36;84.03;;;38.00;;
5351;SDS011;2698;51.454;6.736;2023-02-11T13:34:06;79.07;;;41.10;;
5351;SDS011;2698;51.454;6.736;2023-02-11T13:36:52;72.13;;;38.60;;
5351;SDS011;2698;51.454;6.736;2023-02-11T13:39:20;79.27;;;40.77;;
5351;SDS011;2698;51.454;6.736;2023-02-11T13:41:49;69.53;;;37.60;;
5351;SDS011;2698;51.454;6.736;2023-02-11T13:44:17;78.63;;;39.70;;
5351;SDS011;2698;51.454;6.736;2023-02-11T13:46:59;74.60;;;40.50;;
5351;SDS011;2698;51.454;6.736;2023-02-11T13:49:29;72.47;;;40.87;;
5351;SDS011;2698;51.454;6.736;2023-02-11T13:51:59;69.33;;;37.03;;
5351;SDS011;2698;51.454;6.736;2023-02-11T13:54:29;71.13;;;38.13;;
5351;SDS011;2698;51.454;6.736;2023-02-11T13:59:58;72.93;;;37.90;;
5351;SDS011;2698;51.454;6.736;2023-02-11T14:02:27;81.43;;;38.47;;
5351;SDS011;2698;51.454;6.736;2023-02-11T14:05:20;81.63;;;38.07;;
5351;SDS011;2698;51.454;6.736;2023-02-11T14:08:13;70.83;;;39.67;;
5351;SDS011;2698;51.454;6.736;2023-02-11T14:10:59;68.33;;;37.57;;
5351;SDS011;2698;51.454;6.736;2023-02-11T14:13:34;74.53;;;39.93;;
5351;SDS011;2698;51.454;6.736;2023-02-11T14:16:05;73.63;;;40.00;;
5351;SDS011;2698;51.454;6.736;2023-02-11T14:18:35;73.77;;;39.77;;
5351;SDS011;2698;51.454;6.736;2023-02-11T14:21:29;74.27;;;39.87;;
5351;SDS011;2698;51.454;6.736;2023-02-11T14:26:59;76.07;;;40.67;;
5351;SDS011;2698;51.454;6.736;2023-02-11T14:29:32;69.00;;;39.60;;
5351;SDS011;2698;51.454;6.736;2023-02-11T14:32:08;78.33;;;38.57;;
5351;SDS011;2698;51.454;6.736;2023-02-11T14:34:45;75.33;;;38.77;;
5351;SDS011;2698;51.454;6.736;2023-02-11T14:37:21;68.10;;;38.00;;
5351;SDS011;2698;51.454;6.736;2023-02-11T14:40:02;78.80;;;40.03;;
5351;SDS011;2698;51.454;6.736;2023-02-11T14:42:35;78.53;;;39.33;;
5351;SDS011;2698;51.454;6.736;2023-02-11T14:45:06;68.97;;;40.33;;
5351;SDS011;2698;51.454;6.736;2023-02-11T14:47:39;76.23;;;39.80;;
5351;SDS011;2698;51.454;6.736;2023-02-11T14:50:11;72.53;;;39.27;;
5351;SDS011;2698;51.454;6.736;2023-02-11T14:52:45;71.87;;;40.27;;
5351;SDS011;2698;51.454;6.736;2023-02-11T14:55:14;82.17;;;41.07;;
5351;SDS011;2698;51.454;6.736;2023-02-11T14:57:46;72.30;;;37.07;;
5351;SDS011;2698;51.454;6.736;2023-02-11T15:00:17;65.03;;;38.67;;
5351;SDS011;2698;51.454;6.736;2023-02-11T15:02:46;73.33;;;39.57;;
5351;SDS011;2698;51.454;6.736;2023-02-11T15:05:14;74.93;;;38.90;;
5351;SDS011;2698;51.454;6.736;2023-02-11T15:07:43;71.83;;;36.43;;
5351;SDS011;2698;51.454;6.736;2023-02-11T15:10:21;74.53;;;40.00;;
5351;SDS011;2698;51.454;6.736;2023-02-11T15:12:54;67.73;;;36.97;;
5351;SDS011;2698;51.454;6.736;2023-02-11T15:15:24;68.13;;;36.90;;
5351;SDS011;2698;51.454;6.736;2023-02-11T15:17:51;61.70;;;35.70;;
5351;SDS011;2698;51.454;6.736;2023-02-11T15:20:21;85.57;;;38.80;;
5351;SDS011;2698;51.454;6.736;2023-02-11T15:22:55;77.83;;;38.40;;
5351;SDS011;2698;51.454;6.736;2023-02-11T15:25:24;65.23;;;36.07;;
5351;SDS011;2698;51.454;6.736;2023-02-11T15:27:52;69.60;;;37.23;;
5351;SDS011;2698;51.454;6.736;2023-02-11T15:30:27;61.07;;;34.77;;
5351;SDS011;2698;51.454;6.736;2023-02-11T15:32:58;72.47;;;39.30;;
5351;SDS011;2698;51.454;6.736;2023-02-11T15:35:27;66.57;;;36.37;;
5351;SDS011;2698;51.454;6.736;2023-02-11T15:37:56;66.77;;;36.50;;
5351;SDS011;2698;51.454;6.736;2023-02-11T15:40:24;56.87;;;33.27;;
5351;SDS011;2698;51.454;6.736;2023-02-11T15:42:56;60.60;;;35.47;;
5351;SDS011;2698;51.454;6.736;2023-02-11T15:45:28;64.37;;;36.70;;
5351;SDS011;2698;51.454;6.736;2023-02-11T15:47:59;81.47;;;38.23;;
5351;SDS011;2698;51.454;6.736;2023-02-11T15:50:32;73.73;;;36.97;;
5351;SDS011;2698;51.454;6.736;2023-02-11T15:53:02;74.17;;;39.43;;
5351;SDS011;2698;51.454;6.736;2023-02-11T15:55:41;73.50;;;38.03;;
5351;SDS011;2698;51.454;6.736;2023-02-11T15:58:07;72.43;;;38.07;;
5351;SDS011;2698;51.454;6.736;2023-02-11T16:00:37;77.90;;;40.27;;
5351;SDS011;2698;51.454;6.736;2023-02-11T16:03:17;68.50;;;36.80;;
5351;SDS011;2698;51.454;6.736;2023-02-11T16:05:47;78.60;;;38.23;;
5351;SDS011;2698;51.454;6.736;2023-02-11T16:08:19;80.73;;;40.00;;
5351;SDS011;2698;51.454;6.736;2023-02-11T16:10:55;75.80;;;38.57;;
5351;SDS011;2698;51.454;6.736;2023-02-11T16:13:23;68.87;;;37.83;;
5351;SDS011;2698;51.454;6.736;2023-02-11T16:15:53;68.00;;;37.37;;
5351;SDS011;2698;51.454;6.736;2023-02-11T16:18:29;86.97;;;37.80;;
5351;SDS011;2698;51.454;6.736;2023-02-11T16:20:59;83.00;;;39.17;;
5351;SDS011;2698;51.454;6.736;2023-02-11T16:23:27;80.23;;;37.47;;
5351;SDS011;2698;51.454;6.736;2023-02-11T16:25:58;77.43;;;37.60;;
5351;SDS011;2698;51.454;6.736;2023-02-11T16:28:29;79.73;;;39.53;;
5351;SDS011;2698;51.454;6.736;2023-02-11T16:30:58;76.50;;;36.47;;
5351;SDS011;2698;51.454;6.736;2023-02-11T16:33:25;73.73;;;39.67;;
5351;SDS011;2698;51.454;6.736;2023-02-11T16:35:52;71.13;;;36.83;;
5351;SDS011;2698;51.454;6.736;2023-02-11T16:38:19;85.93;;;38.80;;
5351;SDS011;2698;51.454;6.736;2023-02-11T16:40:46;70.37;;;36.87;;
5351;SDS011;2698;51.454;6.736;2023-02-11T16:43:15;69.80;;;37.30;;
5351;SDS011;2698;51.454;6.736;2023-02-11T16:45:44;84.93;;;37.50;;
5351;SDS011;2698;51.454;6.736;2023-02-11T16:48:14;77.57;;;38.60;;
5351;SDS011;2698;51.454;6.736;2023-02-11T16:50:44;88.33;;;38.20;;
5351;SDS011;2698;51.454;6.736;2023-02-11T16:53:13;73.63;;;39.00;;
5351;SDS011;2698;51.454;6.736;2023-02-11T16:55:43;74.00;;;41.43;;
5351;SDS011;2698;51.454;6.736;2023-02-11T16:58:10;83.37;;;41.70;;
5351;SDS011;2698;51.454;6.736;2023-02-11T17:00:37;65.20;;;39.60;;
5351;SDS011;2698;51.454;6.736;2023-02-11T17:03:04;67.63;;;38.17;;
5351;SDS011;2698;51.454;6.736;2023-02-11T17:05:34;76.93;;;41.03;;
5351;SDS011;2698;51.454;6.736;2023-02-11T17:08:01;88.13;;;42.23;;
5351;SDS011;2698;51.454;6.736;2023-02-11T17:10:30;75.20;;;39.43;;
5351;SDS011;2698;51.454;6.736;2023-02-11T17:12:57;75.33;;;39.13;;
5351;SDS011;2698;51.454;6.736;2023-02-11T17:15:26;93.53;;;41.77;;
5351;SDS011;2698;51.454;6.736;2023-02-11T17:17:53;64.90;;;40.33;;
5351;SDS011;2698;51.454;6.736;2023-02-11T17:20:20;85.30;;;41.87;;
5351;SDS011;2698;51.454;6.736;2023-02-11T17:22:48;74.27;;;40.13;;
5351;SDS011;2698;51.454;6.736;2023-02-11T17:25:15;75.60;;;39.47;;
5351;SDS011;2698;51.454;6.736;2023-02-11T17:27:43;76.47;;;39.50;;
5351;SDS011;2698;51.454;6.736;2023-02-11T17:30:11;72.73;;;40.33;;
5351;SDS011;2698;51.454;6.736;2023-02-11T17:32:39;78.37;;;42.07;;
5351;SDS011;2698;51.454;6.736;2023-02-11T17:35:06;87.57;;;44.30;;
5351;SDS011;2698;51.454;6.736;2023-02-11T17:37:33;78.00;;;42.77;;
5351;SDS011;2698;51.454;6.736;2023-02-11T17:40:01;91.17;;;42.90;;
5351;SDS011;2698;51.454;6.736;2023-02-11T17:42:28;86.13;;;42.23;;
5351;SDS011;2698;51.454;6.736;2023-02-11T17:44:55;89.07;;;44.67;;
5351;SDS011;2698;51.454;6.736;2023-02-11T17:47:22;77.30;;;44.40;;
5351;SDS011;2698;51.454;6.736;2023-02-11T17:49:48;87.43;;;44.97;;
5351;SDS011;2698;51.454;6.736;2023-02-11T17:52:15;91.83;;;46.30;;
5351;SDS011;2698;51.454;6.736;2023-02-11T17:54:43;89.33;;;49.13;;
5351;SDS011;2698;51.454;6.736;2023-02-11T17:57:12;92.80;;;45.20;;
5351;SDS011;2698;51.454;6.736;2023-02-11T17:59:39;92.10;;;47.07;;
5351;SDS011;2698;51.454;6.736;2023-02-11T18:02:06;84.67;;;47.27;;
5351;SDS011;2698;51.454;6.736;2023-02-11T18:04:34;94.40;;;46.83;;
5351;SDS011;2698;51.454;6.736;2023-02-11T18:07:01;91.20;;;45.10;;
5351;SDS011;2698;51.454;6.736;2023-02-11T18:09:28;94.37;;;47.57;;
5351;SDS011;2698;51.454;6.736;2023-02-11T18:11:55;88.80;;;46.27;;
5351;SDS011;2698;51.454;6.736;2023-02-11T18:14:24;81.63;;;45.53;;
5351;SDS011;2698;51.454;6.736;2023-02-11T18:16:51;82.77;;;44.70;;
5351;SDS011;2698;51.454;6.736;2023-02-11T18:19:18;88.93;;;46.60;;
5351;SDS011;2698;51.454;6.736;2023-02-11T18:21:45;85.57;;;47.33;;
5351;SDS011;2698;51.454;6.736;2023-02-11T18:24:14;83.43;;;45.37;;
5351;SDS011;2698;51.454;6.736;2023-02-11T18:26:42;90.97;;;47.23;;
5351;SDS011;2698;51.454;6.736;2023-02-11T18:29:09;103.17;;;50.03;;
5351;SDS011;2698;51.454;6.736;2023-02-11T18:31:37;81.13;;;46.70;;
5351;SDS011;2698;51.454;6.736;2023-02-11T18:34:04;77.30;;;45.30;;
5351;SDS011;2698;51.454;6.736;2023-02-11T18:36:34;98.90;;;49.37;;
5351;SDS011;2698;51.454;6.736;2023-02-11T18:39:02;101.63;;;48.97;;
5351;SDS011;2698;51.454;6.736;2023-02-11T18:41:29;98.50;;;48.00;;
5351;SDS011;2698;51.454;6.736;2023-02-11T18:43:56;93.83;;;48.17;;
5351;SDS011;2698;51.454;6.736;2023-02-11T18:46:26;93.57;;;48.40;;
5351;SDS011;2698;51.454;6.736;2023-02-11T18:48:55;87.07;;;46.67;;
5351;SDS011;2698;51.454;6.736;2023-02-11T18:51:22;90.83;;;46.43;;
5351;SDS011;2698;51.454;6.736;2023-02-11T18:53:49;96.00;;;45.90;;
5351;SDS011;2698;51.454;6.736;2023-02-11T18:56:17;91.80;;;49.70;;
5351;SDS011;2698;51.454;6.736;2023-02-11T18:58:45;95.87;;;47.97;;
5351;SDS011;2698;51.454;6.736;2023-02-11T19:01:12;94.87;;;49.33;;
5351;SDS011;2698;51.454;6.736;2023-02-11T19:03:41;90.47;;;47.87;;
5351;SDS011;2698;51.454;6.736;2023-02-11T19:06:13;93.47;;;48.20;;
5351;SDS011;2698;51.454;6.736;2023-02-11T19:08:41;96.10;;;47.23;;
5351;SDS011;2698;51.454;6.736;2023-02-11T19:11:08;105.30;;;50.07;;
5351;SDS011;2698;51.454;6.736;2023-02-11T19:13:35;93.50;;;50.80;;
5351;SDS011;2698;51.454;6.736;2023-02-11T19:16:03;98.20;;;49.60;;
5351;SDS011;2698;51.454;6.736;2023-02-11T19:18:31;96.33;;;48.37;;
5351;SDS011;2698;51.454;6.736;2023-02-11T19:20:58;98.60;;;53.03;;
5351;SDS011;2698;51.454;6.736;2023-02-11T19:23:26;92.70;;;49.80;;
5351;SDS011;2698;51.454;6.736;2023-02-11T19:25:53;97.30;;;49.77;;
5351;SDS011;2698;51.454;6.736;2023-02-11T19:28:19;97.50;;;52.47;;
5351;SDS011;2698;51.454;6.736;2023-02-11T19:30:46;105.53;;;50.07;;
5351;SDS011;2698;51.454;6.736;2023-02-11T19:33:13;109.90;;;52.27;;
5351;SDS011;2698;51.454;6.736;2023-02-11T19:35:40;109.83;;;53.97;;
5351;SDS011;2698;51.454;6.736;2023-02-11T19:38:06;95.13;;;51.07;;
5351;SDS011;2698;51.454;6.736;2023-02-11T19:40:34;96.83;;;48.13;;
5351;SDS011;2698;51.454;6.736;2023-02-11T19:43:01;106.13;;;52.30;;
5351;SDS011;2698;51.454;6.736;2023-02-11T19:45:28;95.53;;;50.67;;
5351;SDS011;2698;51.454;6.736;2023-02-11T19:47:55;96.77;;;52.37;;
5351;SDS011;2698;51.454;6.736;2023-02-11T19:50:22;93.93;;;50.20;;
5351;SDS011;2698;51.454;6.736;2023-02-11T19:52:49;98.37;;;51.03;;
5351;SDS011;2698;51.454;6.736;2023-02-11T19:55:16;102.43;;;51.60;;
5351;SDS011;2698;51.454;6.736;2023-02-11T19:57:44;92.87;;;51.10;;
5351;SDS011;2698;51.454;6.736;2023-02-11T20:00:12;105.80;;;54.23;;
5351;SDS011;2698;51.454;6.736;2023-02-11T20:02:39;95.63;;;50.50;;
5351;SDS011;2698;51.454;6.736;2023-02-11T20:05:06;112.87;;;51.60;;
5351;SDS011;2698;51.454;6.736;2023-02-11T20:07:33;96.83;;;50.93;;
5351;SDS011;2698;51.454;6.736;2023-02-11T20:10:00;112.17;;;51.90;;
5351;SDS011;2698;51.454;6.736;2023-02-11T20:12:27;108.63;;;53.30;;
5351;SDS011;2698;51.454;6.736;2023-02-11T20:14:55;107.40;;;53.00;;
5351;SDS011;2698;51.454;6.736;2023-02-11T20:17:22;94.53;;;52.13;;
5351;SDS011;2698;51.454;6.736;2023-02-11T20:19:48;97.27;;;52.73;;
5351;SDS011;2698;51.454;6.736;2023-02-11T20:22:15;122.50;;;54.13;;
5351;SDS011;2698;51.454;6.736;2023-02-11T20:24:42;110.83;;;53.23;;
5351;SDS011;2698;51.454;6.736;2023-02-11T20:27:08;129.33;;;54.50;;
5351;SDS011;2698;51.454;6.736;2023-02-11T20:29:36;106.57;;;53.70;;
5351;SDS011;2698;51.454;6.736;2023-02-11T20:32:05;99.57;;;51.20;;
5351;SDS011;2698;51.454;6.736;2023-02-11T20:34:32;133.87;;;55.90;;
5351;SDS011;2698;51.454;6.736;2023-02-11T20:36:59;97.17;;;51.17;;
5351;SDS011;2698;51.454;6.736;2023-02-11T20:39:26;102.63;;;52.97;;
5351;SDS011;2698;51.454;6.736;2023-02-11T20:41:53;103.63;;;54.20;;
5351;SDS011;2698;51.454;6.736;2023-02-11T20:44:21;106.13;;;53.43;;
5351;SDS011;2698;51.454;6.736;2023-02-11T20:46:48;106.33;;;51.27;;
5351;SDS011;2698;51.454;6.736;2023-02-11T20:49:19;108.50;;;54.70;;
5351;SDS011;2698;51.454;6.736;2023-02-11T20:51:47;110.90;;;53.60;;
5351;SDS011;2698;51.454;6.736;2023-02-11T20:54:15;97.00;;;54.43;;
5351;SDS011;2698;51.454;6.736;2023-02-11T20:56:44;107.50;;;54.67;;
5351;SDS011;2698;51.454;6.736;2023-02-11T20:59:11;103.97;;;50.83;;
5351;SDS011;2698;51.454;6.736;2023-02-11T21:01:39;98.87;;;53.33;;
5351;SDS011;2698;51.454;6.736;2023-02-11T21:04:09;102.13;;;56.13;;
5351;SDS011;2698;51.454;6.736;2023-02-11T21:06:39;97.27;;;49.07;;
5351;SDS011;2698;51.454;6.736;2023-02-11T21:09:09;105.20;;;53.57;;
5351;SDS011;2698;51.454;6.736;2023-02-11T21:11:37;95.73;;;49.70;;
5351;SDS011;2698;51.454;6.736;2023-02-11T21:14:04;103.87;;;54.00;;
5351;SDS011;2698;51.454;6.736;2023-02-11T21:16:31;102.53;;;53.50;;
5351;SDS011;2698;51.454;6.736;2023-02-11T21:18:58;99.50;;;52.93;;
5351;SDS011;2698;51.454;6.736;2023-02-11T21:21:26;105.13;;;52.60;;
5351;SDS011;2698;51.454;6.736;2023-02-11T21:23:55;119.30;;;56.47;;
5351;SDS011;2698;51.454;6.736;2023-02-11T21:26:22;108.13;;;53.70;;
5351;SDS011;2698;51.454;6.736;2023-02-11T21:28:49;104.83;;;57.80;;
5351;SDS011;2698;51.454;6.736;2023-02-11T21:31:17;111.83;;;52.23;;
5351;SDS011;2698;51.454;6.736;2023-02-11T21:33:45;108.23;;;53.83;;
5351;SDS011;2698;51.454;6.736;2023-02-11T21:36:12;113.57;;;56.23;;
5351;SDS011;2698;51.454;6.736;2023-02-11T21:38:39;106.70;;;53.47;;
5351;SDS011;2698;51.454;6.736;2023-02-11T21:41:08;95.63;;;52.03;;
5351;SDS011;2698;51.454;6.736;2023-02-11T21:43:35;108.13;;;55.00;;
5351;SDS011;2698;51.454;6.736;2023-02-11T21:46:05;96.90;;;53.70;;
5351;SDS011;2698;51.454;6.736;2023-02-11T21:48:32;104.53;;;51.93;;
5351;SDS011;2698;51.454;6.736;2023-02-11T21:51:02;107.40;;;53.57;;
5351;SDS011;2698;51.454;6.736;2023-02-11T21:53:30;108.67;;;54.70;;
5351;SDS011;2698;51.454;6.736;2023-02-11T21:56:04;110.97;;;54.83;;
5351;SDS011;2698;51.454;6.736;2023-02-11T21:58:33;99.63;;;51.60;;
5351;SDS011;2698;51.454;6.736;2023-02-11T22:01:00;101.77;;;53.83;;
5351;SDS011;2698;51.454;6.736;2023-02-11T22:03:27;92.37;;;51.67;;
5351;SDS011;2698;51.454;6.736;2023-02-11T22:05:54;98.50;;;54.20;;
5351;SDS011;2698;51.454;6.736;2023-02-11T22:08:20;102.20;;;53.37;;
5351;SDS011;2698;51.454;6.736;2023-02-11T22:10:47;97.40;;;53.33;;
5351;SDS011;2698;51.454;6.736;2023-02-11T22:13:14;97.77;;;52.70;;
5351;SDS011;2698;51.454;6.736;2023-02-11T22:15:42;99.50;;;53.10;;
5351;SDS011;2698;51.454;6.736;2023-02-11T22:18:08;92.50;;;51.40;;
5351;SDS011;2698;51.454;6.736;2023-02-11T22:20:35;107.83;;;54.60;;
5351;SDS011;2698;51.454;6.736;2023-02-11T22:23:02;91.23;;;51.57;;
5351;SDS011;2698;51.454;6.736;2023-02-11T22:25:29;107.60;;;54.13;;
5351;SDS011;2698;51.454;6.736;2023-02-11T22:27:55;104.43;;;54.07;;
5351;SDS011;2698;51.454;6.736;2023-02-11T22:30:22;95.13;;;52.03;;
5351;SDS011;2698;51.454;6.736;2023-02-11T22:32:50;107.43;;;52.60;;
5351;SDS011;2698;51.454;6.736;2023-02-11T22:35:17;92.33;;;50.80;;
5351;SDS011;2698;51.454;6.736;2023-02-11T22:37:44;94.53;;;51.60;;
5351;SDS011;2698;51.454;6.736;2023-02-11T22:40:11;95.13;;;49.70;;
5351;SDS011;2698;51.454;6.736;2023-02-11T22:42:38;101.43;;;55.17;;
5351;SDS011;2698;51.454;6.736;2023-02-11T22:45:05;96.10;;;50.23;;
5351;SDS011;2698;51.454;6.736;2023-02-11T22:47:32;86.57;;;49.57;;
5351;SDS011;2698;51.454;6.736;2023-02-11T22:50:01;103.10;;;51.67;;
5351;SDS011;2698;51.454;6.736;2023-02-11T22:52:28;89.80;;;49.77;;
5351;SDS011;2698;51.454;6.736;2023-02-11T22:54:55;96.37;;;49.23;;
5351;SDS011;2698;51.454;6.736;2023-02-11T22:57:24;91.47;;;50.30;;
5351;SDS011;2698;51.454;6.736;2023-02-11T22:59:51;104.50;;;48.80;;
5351;SDS011;2698;51.454;6.736;2023-02-11T23:02:17;83.50;;;48.80;;
5351;SDS011;2698;51.454;6.736;2023-02-11T23:04:44;96.37;;;51.60;;
5351;SDS011;2698;51.454;6.736;2023-02-11T23:07:12;87.50;;;50.60;;
5351;SDS011;2698;51.454;6.736;2023-02-11T23:09:39;92.67;;;47.93;;
5351;SDS011;2698;51.454;6.736;2023-02-11T23:12:06;84.23;;;47.07;;
5351;SDS011;2698;51.454;6.736;2023-02-11T23:14:33;93.27;;;48.77;;
5351;SDS011;2698;51.454;6.736;2023-02-11T23:17:00;87.90;;;49.50;;
5351;SDS011;2698;51.454;6.736;2023-02-11T23:19:27;85.30;;;48.27;;
5351;SDS011;2698;51.454;6.736;2023-02-11T23:21:53;88.47;;;47.60;;
5351;SDS011;2698;51.454;6.736;2023-02-11T23:24:22;92.53;;;46.40;;
5351;SDS011;2698;51.454;6.736;2023-02-11T23:26:48;80.53;;;47.17;;
5351;SDS011;2698;51.454;6.736;2023-02-11T23:29:15;82.73;;;47.30;;
5351;SDS011;2698;51.454;6.736;2023-02-11T23:31:42;83.97;;;48.37;;
5351;SDS011;2698;51.454;6.736;2023-02-11T23:34:10;83.70;;;49.50;;
5351;SDS011;2698;51.454;6.736;2023-02-11T23:36:41;89.50;;;47.93;;
5351;SDS011;2698;51.454;6.736;2023-02-11T23:39:09;92.93;;;49.00;;
5351;SDS011;2698;51.454;6.736;2023-02-11T23:41:40;91.13;;;49.10;;
5351;SDS011;2698;51.454;6.736;2023-02-11T23:44:06;83.40;;;45.30;;
5351;SDS011;2698;51.454;6.736;2023-02-11T23:46:35;85.27;;;48.90;;
5351;SDS011;2698;51.454;6.736;2023-02-11T23:49:01;96.20;;;48.60;;
5351;SDS011;2698;51.454;6.736;2023-02-11T23:51:28;81.23;;;46.77;;
5351;SDS011;2698;51.454;6.736;2023-02-11T23:53:55;84.77;;;48.47;;
5351;SDS011;2698;51.454;6.736;2023-02-11T23:56:22;96.90;;;49.40;;
5351;SDS011;2698;51.454;6.736;2023-02-11T23:58:53;85.90;;;45.67;;
